Norwegian Epic — C6XP7 — position and weather

sailwx.info

Track history (hours):
 
Tides and Currents Weather Stations Pressure Air Temp Water Temp Dewpoint Dewpoint Depression Visibility Wind Speed Wind Dir Waves Ship Positions

Norwegian Epic

Last reported at 2014-Sep-19 11:30 UTC. Time now 2014-Sep-19 11:57 UTC.
Position N 43°32' E 007°01'.

Length 329 m; draft 9 m.

Type: Passenger vessel. MMSI: 311018500.

Date/timePositionNaut miles runAvg speedWind from/ knotsBaromVisibWave heightAir tempDewpointWater temp
2014-Sep-19 11:30N 43°32' E 007°01'0 0.1
2014-Sep-19 10:31N 43°32' E 007°01'0 0.0
2014-Sep-19 09:32N 43°32' E 007°01'0 0.0
2014-Sep-19 08:26N 43°32' E 007°01'0 0.0
2014-Sep-19 07:33N 43°32' E 007°01'0 0.0
2014-Sep-19 06:28N 43°32' E 007°01'0 0.0
2014-Sep-19 05:28N 43°32' E 007°01'5 5.6
2014-Sep-19 04:33N 43°28' E 007°05'1313.5
2014-Sep-19 03:33N 43°28' E 007°23'1313.4
2014-Sep-19 02:33N 43°29' E 007°42'1313.1
2014-Sep-19 01:33N 43°29' E 007°60'1313.1
2014-Sep-19 00:34N 43°30' E 008°18'0 0.4
2014-Sep-19 00:00N 43°30' E 008°18'1330.0 310 / 81015.0 5.4 24.0
2014-Sep-18 23:33N 43°32' E 008°36'1212.5
2014-Sep-18 22:33N 43°30' E 008°53'1312.5
2014-Sep-18 21:33N 43°31' E 009°10'1212.2
2014-Sep-18 20:33N 43°31' E 009°27'1211.9
2014-Sep-18 19:33N 43°32' E 009°43'1211.9
2014-Sep-18 18:34N 43°31' E 009°60'1110.9
2014-Sep-18 17:33N 43°32' E 010°15'3 2.6
2014-Sep-18 16:32N 43°33' E 010°18'0 0.0
2014-Sep-18 15:33N 43°33' E 010°18'0 0.0
2014-Sep-18 14:33N 43°33' E 010°18'0 0.0
2014-Sep-18 13:31N 43°33' E 010°18'0 0.0
2014-Sep-18 12:32N 43°33' E 010°18'0 0.0
2014-Sep-18 11:33N 43°33' E 010°18'0 0.0
2014-Sep-18 10:33N 43°33' E 010°18'0 0.0
2014-Sep-18 09:31N 43°33' E 010°18'0 0.0
2014-Sep-18 08:31N 43°33' E 010°18'0 0.0
2014-Sep-18 07:32N 43°33' E 010°18'0 0.0
2014-Sep-18 06:33N 43°33' E 010°18'0 0.0
2014-Sep-18 05:33N 43°33' E 010°18'0 0.3
2014-Sep-18 04:33N 43°33' E 010°17'1110.7
2014-Sep-18 03:34N 43°24' E 010°10'1616.3
2014-Sep-18 02:33N 43°08' E 010°04'1312.9
2014-Sep-18 01:34N 42°56' E 009°59'2113.1
2014-Sep-18 00:00N 42°36' E 009°54'1014.6 170 / 261015.010.8 24.0
2014-Sep-17 23:17N 42°26' E 009°54'1514.5
2014-Sep-17 22:14N 42°14' E 010°08'1316.3
2014-Sep-17 21:27N 42°10' E 010°24'1416.2
2014-Sep-17 20:33N 42°05' E 010°42'3614.0
2014-Sep-17 18:00N 42°00' E 011°30'45 2.5 240 / 81013.0 5.4 23.0 23.0
2014-Sep-17 00:00N 41°24' E 012°06'103 5.6 160 / 101015.010.8 24.0
2014-Sep-16 05:32N 40°50' E 014°16'2 1.6
2014-Sep-16 04:33N 40°49' E 014°17'1110.6
2014-Sep-16 03:33N 40°41' E 014°08'1212.0
2014-Sep-16 02:33N 40°38' E 013°53'1312.7
2014-Sep-16 01:33N 40°39' E 013°36'1312.9
2014-Sep-16 00:33N 40°41' E 013°19'39215.9
2014-Sep-15 00:00N 41°12' E 004°42'2714.9 220 / 281015.010.8 25.0 24.0
2014-Sep-14 22:09N 41°16' E 004°06'3117.0
2014-Sep-14 20:18N 41°16' E 003°24'1215.9
2014-Sep-14 19:33N 41°16' E 003°08'1616.0
2014-Sep-14 18:33N 41°16' E 002°47'1323.6
2014-Sep-14 18:00N 41°12' E 002°30'6 9.9 080 / 161011.010.8 23.0 23.0
2014-Sep-14 17:26N 41°15' E 002°24'1111.7
2014-Sep-14 16:27N 41°20' E 002°10'4 0.2
2014-Sep-14 01:30N 41°16' E 002°11'7117.9
2014-Sep-13 21:34N 40°06' E 002°12'2020.3
2014-Sep-13 20:34N 39°46' E 002°13'1817.7
2014-Sep-13 19:34N 39°29' E 002°19'1413.7
2014-Sep-13 18:33N 39°28' E 002°37'5 5.2
2014-Sep-13 17:33N 39°33' E 002°38'0 0.0
2014-Sep-13 15:33N 39°33' E 002°38'0 0.0
2014-Sep-13 14:33N 39°33' E 002°38'0 0.0
2014-Sep-13 13:19N 39°33' E 002°38'0 0.0
2014-Sep-13 12:19N 39°33' E 002°38'0 0.1
2014-Sep-13 11:33N 39°33' E 002°38'0 0.1
2014-Sep-13 10:33N 39°33' E 002°38'10 9.9
2014-Sep-13 09:33N 39°24' E 002°31'1817.8
2014-Sep-13 08:33N 39°38' E 002°16'2221.6
2014-Sep-13 07:33N 39°55' E 002°34'2121.5
2014-Sep-13 06:33N 40°11' E 002°52'2222.0
2014-Sep-13 05:34N 40°26' E 003°13'2222.4
2014-Sep-13 04:33N 40°42' E 003°34'9222.1
2014-Sep-13 00:24N 41°47' E 005°01'410.0
2014-Sep-13 00:00N 41°48' E 005°06'1732.4 110 / 341010.010.8 22.0 24.0
2014-Sep-12 23:28N 42°01' E 005°21'3227.0
2014-Sep-12 22:16N 42°24' E 005°52'811.4
2014-Sep-12 21:33N 42°30' E 005°60'2222.2
2014-Sep-12 20:33N 42°45' E 006°21'2222.4
2014-Sep-12 19:33N 43°01' E 006°42'2221.9
2014-Sep-12 18:33N 43°20' E 006°57'9 9.4
2014-Sep-12 17:33N 43°30' E 007°00'3 2.6
2014-Sep-12 16:33N 43°32' E 007°01'0 0.2
2014-Sep-12 15:24N 43°32' E 007°01'0 0.0
2014-Sep-12 14:25N 43°32' E 007°01'0 0.0
2014-Sep-12 13:32N 43°32' E 007°01'0 0.0
2014-Sep-12 12:32N 43°32' E 007°01'0 0.0
2014-Sep-12 11:33N 43°32' E 007°01'0 0.0
2014-Sep-12 10:28N 43°32' E 007°01'0 0.0
2014-Sep-12 09:31N 43°32' E 007°01'0 0.1
2014-Sep-12 08:29N 43°32' E 007°01'0 0.0
2014-Sep-12 07:30N 43°32' E 007°01'0 0.0
2014-Sep-12 06:25N 43°32' E 007°01'0 0.0
2014-Sep-12 05:33N 43°32' E 007°01'5 5.2
2014-Sep-12 04:33N 43°28' E 007°05'1312.9
2014-Sep-12 03:33N 43°28' E 007°23'1312.5
2014-Sep-12 02:33N 43°29' E 007°40'2712.9
2014-Sep-12 00:28N 43°30' E 008°18'715.9
2014-Sep-12 00:00N 43°24' E 008°24'1022.4
2014-Sep-11 23:33N 43°30' E 008°34'1313.3
2014-Sep-11 22:33N 43°31' E 008°53'1212.4
2014-Sep-11 21:33N 43°31' E 009°10'1211.8
2014-Sep-11 20:33N 43°32' E 009°26'1212.0
2014-Sep-11 19:33N 43°33' E 009°43'1212.1
2014-Sep-11 18:33N 43°31' E 009°59'1211.6
2014-Sep-11 17:33N 43°32' E 010°15'2 2.4
2014-Sep-11 16:32N 43°33' E 010°18'0 0.0
2014-Sep-11 15:32N 43°33' E 010°18'0 0.0
2014-Sep-11 14:33N 43°33' E 010°18'0 0.0
2014-Sep-11 13:33N 43°33' E 010°18'0 0.0
2014-Sep-11 12:33N 43°33' E 010°18'0 0.0
2014-Sep-11 11:33N 43°33' E 010°18'0 0.0
2014-Sep-11 10:33N 43°33' E 010°18'0 0.0
2014-Sep-11 09:33N 43°33' E 010°18'0 0.0
2014-Sep-11 08:33N 43°33' E 010°18'0 0.0
2014-Sep-11 07:33N 43°33' E 010°18'0 0.0
2014-Sep-11 06:33N 43°33' E 010°18'0 0.0
2014-Sep-11 05:33N 43°33' E 010°18'0 0.2
2014-Sep-11 04:34N 43°33' E 010°17'9 8.7
2014-Sep-11 03:33N 43°26' E 010°11'1313.3
2014-Sep-11 02:33N 43°13' E 010°07'1313.0
2014-Sep-11 01:33N 43°00' E 010°01'230 6.4
2014-Sep-09 13:33N 40°50' E 014°16'0 0.0
2014-Sep-09 12:34N 40°50' E 014°16'0 0.0
2014-Sep-09 11:33N 40°50' E 014°16'  
Track history (hours):
 
Tides and Currents Weather Stations Pressure Air Temp Water Temp Dewpoint Dewpoint Depression Visibility Wind Speed Wind Dir Waves Ship Positions

Norwegian Epic

Last reported at 2014-Sep-19 11:30 UTC. Time now 2014-Sep-19 11:57 UTC.
Position N 43°32' E 007°01'.

Length 329 m; draft 9 m.

Type: Passenger vessel. MMSI: 311018500.

Date/timePositionNaut miles runAvg speedWind from/ knotsBaromVisibWave heightAir tempDewpointWater temp
2014-Sep-19 11:30N 43°32' E 007°01'0 0.1
2014-Sep-19 10:31N 43°32' E 007°01'0 0.0
2014-Sep-19 09:32N 43°32' E 007°01'0 0.0
2014-Sep-19 08:26N 43°32' E 007°01'0 0.0
2014-Sep-19 07:33N 43°32' E 007°01'0 0.0
2014-Sep-19 06:28N 43°32' E 007°01'0 0.0
2014-Sep-19 05:28N 43°32' E 007°01'5 5.6
2014-Sep-19 04:33N 43°28' E 007°05'1313.5
2014-Sep-19 03:33N 43°28' E 007°23'1313.4
2014-Sep-19 02:33N 43°29' E 007°42'1313.1
2014-Sep-19 01:33N 43°29' E 007°60'1313.1
2014-Sep-19 00:34N 43°30' E 008°18'0 0.4
2014-Sep-19 00:00N 43°30' E 008°18'1330.0 310 / 81015.0 5.4 24.0
2014-Sep-18 23:33N 43°32' E 008°36'1212.5
2014-Sep-18 22:33N 43°30' E 008°53'1312.5
2014-Sep-18 21:33N 43°31' E 009°10'1212.2
2014-Sep-18 20:33N 43°31' E 009°27'1211.9
2014-Sep-18 19:33N 43°32' E 009°43'1211.9
2014-Sep-18 18:34N 43°31' E 009°60'1110.9
2014-Sep-18 17:33N 43°32' E 010°15'3 2.6
2014-Sep-18 16:32N 43°33' E 010°18'0 0.0
2014-Sep-18 15:33N 43°33' E 010°18'0 0.0
2014-Sep-18 14:33N 43°33' E 010°18'0 0.0
2014-Sep-18 13:31N 43°33' E 010°18'0 0.0
2014-Sep-18 12:32N 43°33' E 010°18'0 0.0
2014-Sep-18 11:33N 43°33' E 010°18'0 0.0
2014-Sep-18 10:33N 43°33' E 010°18'0 0.0
2014-Sep-18 09:31N 43°33' E 010°18'0 0.0
2014-Sep-18 08:31N 43°33' E 010°18'0 0.0
2014-Sep-18 07:32N 43°33' E 010°18'0 0.0
2014-Sep-18 06:33N 43°33' E 010°18'0 0.0
2014-Sep-18 05:33N 43°33' E 010°18'0 0.3
2014-Sep-18 04:33N 43°33' E 010°17'1110.7
2014-Sep-18 03:34N 43°24' E 010°10'1616.3
2014-Sep-18 02:33N 43°08' E 010°04'1312.9
2014-Sep-18 01:34N 42°56' E 009°59'2113.1
2014-Sep-18 00:00N 42°36' E 009°54'1014.6 170 / 261015.010.8 24.0
2014-Sep-17 23:17N 42°26' E 009°54'1514.5
2014-Sep-17 22:14N 42°14' E 010°08'1316.3
2014-Sep-17 21:27N 42°10' E 010°24'1416.2
2014-Sep-17 20:33N 42°05' E 010°42'3614.0
2014-Sep-17 18:00N 42°00' E 011°30'45 2.5 240 / 81013.0 5.4 23.0 23.0
2014-Sep-17 00:00N 41°24' E 012°06'103 5.6 160 / 101015.010.8 24.0
2014-Sep-16 05:32N 40°50' E 014°16'2 1.6
2014-Sep-16 04:33N 40°49' E 014°17'1110.6
2014-Sep-16 03:33N 40°41' E 014°08'1212.0
2014-Sep-16 02:33N 40°38' E 013°53'1312.7
2014-Sep-16 01:33N 40°39' E 013°36'1312.9
2014-Sep-16 00:33N 40°41' E 013°19'39215.9
2014-Sep-15 00:00N 41°12' E 004°42'2714.9 220 / 281015.010.8 25.0 24.0
2014-Sep-14 22:09N 41°16' E 004°06'3117.0
2014-Sep-14 20:18N 41°16' E 003°24'1215.9
2014-Sep-14 19:33N 41°16' E 003°08'1616.0
2014-Sep-14 18:33N 41°16' E 002°47'1323.6
2014-Sep-14 18:00N 41°12' E 002°30'6 9.9 080 / 161011.010.8 23.0 23.0
2014-Sep-14 17:26N 41°15' E 002°24'1111.7
2014-Sep-14 16:27N 41°20' E 002°10'4 0.2
2014-Sep-14 01:30N 41°16' E 002°11'7117.9
2014-Sep-13 21:34N 40°06' E 002°12'2020.3
2014-Sep-13 20:34N 39°46' E 002°13'1817.7
2014-Sep-13 19:34N 39°29' E 002°19'1413.7
2014-Sep-13 18:33N 39°28' E 002°37'5 5.2
2014-Sep-13 17:33N 39°33' E 002°38'0 0.0
2014-Sep-13 15:33N 39°33' E 002°38'0 0.0
2014-Sep-13 14:33N 39°33' E 002°38'0 0.0
2014-Sep-13 13:19N 39°33' E 002°38'0 0.0
2014-Sep-13 12:19N 39°33' E 002°38'0 0.1
2014-Sep-13 11:33N 39°33' E 002°38'0 0.1
2014-Sep-13 10:33N 39°33' E 002°38'10 9.9
2014-Sep-13 09:33N 39°24' E 002°31'1817.8
2014-Sep-13 08:33N 39°38' E 002°16'2221.6
2014-Sep-13 07:33N 39°55' E 002°34'2121.5
2014-Sep-13 06:33N 40°11' E 002°52'2222.0
2014-Sep-13 05:34N 40°26' E 003°13'2222.4
2014-Sep-13 04:33N 40°42' E 003°34'9222.1
2014-Sep-13 00:24N 41°47' E 005°01'410.0
2014-Sep-13 00:00N 41°48' E 005°06'1732.4 110 / 341010.010.8 22.0 24.0
2014-Sep-12 23:28N 42°01' E 005°21'3227.0
2014-Sep-12 22:16N 42°24' E 005°52'811.4
2014-Sep-12 21:33N 42°30' E 005°60'2222.2
2014-Sep-12 20:33N 42°45' E 006°21'2222.4
2014-Sep-12 19:33N 43°01' E 006°42'2221.9
2014-Sep-12 18:33N 43°20' E 006°57'9 9.4
2014-Sep-12 17:33N 43°30' E 007°00'3 2.6
2014-Sep-12 16:33N 43°32' E 007°01'0 0.2
2014-Sep-12 15:24N 43°32' E 007°01'0 0.0
2014-Sep-12 14:25N 43°32' E 007°01'0 0.0
2014-Sep-12 13:32N 43°32' E 007°01'0 0.0
2014-Sep-12 12:32N 43°32' E 007°01'0 0.0
2014-Sep-12 11:33N 43°32' E 007°01'0 0.0
2014-Sep-12 10:28N 43°32' E 007°01'0 0.0
2014-Sep-12 09:31N 43°32' E 007°01'0 0.1
2014-Sep-12 08:29N 43°32' E 007°01'0 0.0
2014-Sep-12 07:30N 43°32' E 007°01'0 0.0
2014-Sep-12 06:25N 43°32' E 007°01'0 0.0
2014-Sep-12 05:33N 43°32' E 007°01'5 5.2
2014-Sep-12 04:33N 43°28' E 007°05'1312.9
2014-Sep-12 03:33N 43°28' E 007°23'1312.5
2014-Sep-12 02:33N 43°29' E 007°40'2712.9
2014-Sep-12 00:28N 43°30' E 008°18'715.9
2014-Sep-12 00:00N 43°24' E 008°24'1022.4
2014-Sep-11 23:33N 43°30' E 008°34'1313.3
2014-Sep-11 22:33N 43°31' E 008°53'1212.4
2014-Sep-11 21:33N 43°31' E 009°10'1211.8
2014-Sep-11 20:33N 43°32' E 009°26'1212.0
2014-Sep-11 19:33N 43°33' E 009°43'1212.1
2014-Sep-11 18:33N 43°31' E 009°59'1211.6
2014-Sep-11 17:33N 43°32' E 010°15'2 2.4
2014-Sep-11 16:32N 43°33' E 010°18'0 0.0
2014-Sep-11 15:32N 43°33' E 010°18'0 0.0
2014-Sep-11 14:33N 43°33' E 010°18'0 0.0
2014-Sep-11 13:33N 43°33' E 010°18'0 0.0
2014-Sep-11 12:33N 43°33' E 010°18'0 0.0
2014-Sep-11 11:33N 43°33' E 010°18'0 0.0
2014-Sep-11 10:33N 43°33' E 010°18'0 0.0
2014-Sep-11 09:33N 43°33' E 010°18'0 0.0
2014-Sep-11 08:33N 43°33' E 010°18'0 0.0
2014-Sep-11 07:33N 43°33' E 010°18'0 0.0
2014-Sep-11 06:33N 43°33' E 010°18'0 0.0
2014-Sep-11 05:33N 43°33' E 010°18'0 0.2
2014-Sep-11 04:34N 43°33' E 010°17'9 8.7
2014-Sep-11 03:33N 43°26' E 010°11'1313.3
2014-Sep-11 02:33N 43°13' E 010°07'1313.0
2014-Sep-11 01:33N 43°00' E 010°01'230 6.4
2014-Sep-09 13:33N 40°50' E 014°16'0 0.0
2014-Sep-09 12:34N 40°50' E 014°16'0 0.0
2014-Sep-09 11:33N 40°50' E 014°16'  

Dump ship's entire track history